createdAt,value
2019-03-08T00:00:49.987Z,8.25
2019-03-08T00:03:37.724Z,8.24
2019-03-08T00:06:06.113Z,8.30
2019-03-08T00:08:53.854Z,8.30
2019-03-08T00:11:22.242Z,8.37
2019-03-08T00:16:44.393Z,8.35
2019-03-08T00:19:31.909Z,8.34
2019-03-08T00:24:34.097Z,8.50
2019-03-08T00:27:04.227Z,8.35
2019-03-08T00:29:51.860Z,8.31
2019-03-08T00:32:39.380Z,8.18
2019-03-08T00:35:47.699Z,7.99
2019-03-08T00:38:16.111Z,7.96
2019-03-08T00:40:46.222Z,7.91
2019-03-08T00:43:14.628Z,7.83
2019-03-08T00:49:10.394Z,7.84
2019-03-08T00:54:45.450Z,7.95
2019-03-08T00:57:33.094Z,7.97
2019-03-08T01:00:01.495Z,7.90
2019-03-08T01:02:31.605Z,7.91
2019-03-08T01:05:19.309Z,7.96
2019-03-08T01:07:47.713Z,7.99
2019-03-08T01:10:35.487Z,7.97
2019-03-08T01:13:23.432Z,8.00
2019-03-08T01:21:33.827Z,7.95
2019-03-08T01:24:21.349Z,7.88
2019-03-08T01:29:37.508Z,7.58
2019-03-08T01:32:25.050Z,7.46
2019-03-08T01:34:53.411Z,7.40
2019-03-08T01:37:41.044Z,7.32
2019-03-08T01:40:30.720Z,7.26
2019-03-08T01:43:18.355Z,7.27
2019-03-08T01:45:46.751Z,7.17
2019-03-08T01:48:34.261Z,7.17
2019-03-08T01:51:02.664Z,7.10
2019-03-08T01:53:50.173Z,7.13
2019-03-08T01:56:18.566Z,7.08
2019-03-08T01:58:46.962Z,7.11
2019-03-08T02:01:15.355Z,7.19
2019-03-08T02:03:43.742Z,7.19
2019-03-08T02:06:31.257Z,7.15
2019-03-08T02:08:59.653Z,7.15
2019-03-08T02:11:28.046Z,7.19
2019-03-08T02:14:15.687Z,7.23
2019-03-08T02:16:45.802Z,7.31
2019-03-08T02:21:48.233Z,7.34
2019-03-08T02:24:16.628Z,7.35
2019-03-08T02:27:04.128Z,7.25
2019-03-08T02:29:32.530Z,7.27
2019-03-08T02:32:00.918Z,7.19
2019-03-08T02:34:29.314Z,7.13
2019-03-08T02:37:16.948Z,7.17
2019-03-08T02:39:45.350Z,7.21
2019-03-08T02:42:32.986Z,7.12
2019-03-08T02:45:01.387Z,7.07
2019-03-08T02:47:49.022Z,7.06
2019-03-08T02:50:57.336Z,7.04
2019-03-08T02:53:44.964Z,7.00
2019-03-08T02:56:13.365Z,7.00
2019-03-08T02:59:00.996Z,7.00
2019-03-08T03:01:29.400Z,7.01
2019-03-08T03:03:57.788Z,7.01
2019-03-08T03:06:45.299Z,7.00
2019-03-08T03:09:13.860Z,6.98
2019-03-08T03:11:42.257Z,6.89
2019-03-08T03:14:10.642Z,6.91
2019-03-08T03:16:58.287Z,6.89
2019-03-08T03:19:26.678Z,6.90
2019-03-08T03:22:14.192Z,6.93
2019-03-08T03:24:42.591Z,6.87
2019-03-08T03:27:30.224Z,6.87
2019-03-08T03:29:58.906Z,6.85
2019-03-08T03:32:46.663Z,6.83
2019-03-08T03:35:34.181Z,6.89
2019-03-08T03:38:02.855Z,6.93
2019-03-08T03:43:44.897Z,6.77
2019-03-08T03:46:13.306Z,6.71
2019-03-08T03:49:00.946Z,6.76
2019-03-08T03:51:31.059Z,6.74
2019-03-08T03:54:18.564Z,6.70
2019-03-08T03:57:06.334Z,6.65
2019-03-08T03:59:53.836Z,6.75
2019-03-08T04:02:22.306Z,6.73
2019-03-08T04:07:38.139Z,6.66
2019-03-08T04:10:46.452Z,6.63
2019-03-08T04:13:14.909Z,6.71
2019-03-08T04:16:02.421Z,6.70
2019-03-08T04:18:30.814Z,6.65
2019-03-08T04:20:59.204Z,6.67
2019-03-08T04:23:29.320Z,6.68
2019-03-08T04:25:57.717Z,6.70
2019-03-08T04:31:13.545Z,6.67
2019-03-08T04:33:41.934Z,6.65
2019-03-08T04:36:30.359Z,6.59
2019-03-08T04:39:18.897Z,6.66
2019-03-08T04:41:49.009Z,6.58
2019-03-08T04:44:17.396Z,6.64
2019-03-08T04:46:45.788Z,6.64
2019-03-08T04:49:14.183Z,6.67
2019-03-08T04:52:01.696Z,6.58
2019-03-08T04:54:30.087Z,6.56
2019-03-08T04:57:17.728Z,6.50
2019-03-08T05:00:05.367Z,6.48
2019-03-08T05:02:34.042Z,6.54
2019-03-08T05:05:02.433Z,6.58
2019-03-08T05:07:30.837Z,6.62
2019-03-08T05:10:18.465Z,6.56
2019-03-08T05:13:05.981Z,6.56
2019-03-08T05:15:34.368Z,6.52
2019-03-08T05:18:02.765Z,6.59
2019-03-08T05:20:31.151Z,6.61
2019-03-08T05:23:01.330Z,6.58
2019-03-08T05:25:48.956Z,6.57
2019-03-08T05:28:17.358Z,6.72
2019-03-08T05:30:45.752Z,6.74
2019-03-08T05:33:16.129Z,6.70
2019-03-08T05:35:44.513Z,6.61
2019-03-08T05:38:12.914Z,6.68
2019-03-08T05:46:03.172Z,6.63
2019-03-08T05:48:50.634Z,6.60
2019-03-08T05:51:19.024Z,6.59
2019-03-08T05:53:47.420Z,6.60
2019-03-08T05:56:15.806Z,6.64
2019-03-08T05:59:03.587Z,6.62
2019-03-08T06:01:51.108Z,6.54
2019-03-08T06:04:19.500Z,6.66
2019-03-08T06:06:47.896Z,6.68
2019-03-08T06:09:35.402Z,6.58
2019-03-08T06:12:23.145Z,6.69
2019-03-08T06:15:10.781Z,6.65
2019-03-08T06:17:39.176Z,6.70
2019-03-08T06:20:26.818Z,6.75
2019-03-08T06:22:55.225Z,6.64
2019-03-08T06:25:23.625Z,6.63
2019-03-08T06:28:31.930Z,6.75
2019-03-08T06:31:00.333Z,6.73
2019-03-08T06:33:47.983Z,6.74
2019-03-08T06:36:37.211Z,6.69
2019-03-08T06:39:45.513Z,6.77
2019-03-08T06:44:48.153Z,6.86
2019-03-08T06:47:16.549Z,6.78
2019-03-08T06:49:44.942Z,6.83
2019-03-08T06:52:13.342Z,6.79
2019-03-08T06:54:41.738Z,6.81
2019-03-08T06:57:29.385Z,6.76
2019-03-08T07:02:46.861Z,6.84
2019-03-08T07:05:15.299Z,6.77
2019-03-08T07:07:43.664Z,6.71
2019-03-08T07:13:18.742Z,6.55
2019-03-08T07:15:47.135Z,6.61
2019-03-08T07:18:34.794Z,6.56
2019-03-08T07:21:22.470Z,6.60
2019-03-08T07:24:09.986Z,6.44
2019-03-08T07:26:57.500Z,6.54
2019-03-08T07:32:39.899Z,6.62
2019-03-08T07:35:48.203Z,6.66
2019-03-08T07:38:35.729Z,6.56
2019-03-08T07:44:12.324Z,6.58
2019-03-08T07:50:08.183Z,6.41
2019-03-08T07:52:55.946Z,6.36
2019-03-08T07:58:32.537Z,6.18
2019-03-08T08:04:47.915Z,6.15
2019-03-08T08:07:35.428Z,6.14
2019-03-08T08:10:43.742Z,6.12
2019-03-08T08:13:50.855Z,6.16
2019-03-08T08:16:38.362Z,6.18
2019-03-08T08:19:45.137Z,6.16
2019-03-08T08:22:32.645Z,5.97
2019-03-08T08:25:20.341Z,5.75
2019-03-08T08:28:07.845Z,5.62
2019-03-08T08:30:55.440Z,5.50
2019-03-08T08:33:42.959Z,5.34
2019-03-08T08:36:51.274Z,5.29
2019-03-08T08:39:38.798Z,5.37
2019-03-08T08:42:47.297Z,5.54
2019-03-08T08:45:34.812Z,5.77
2019-03-08T08:48:22.323Z,6.12
2019-03-08T08:53:48.759Z,8.31
2019-03-08T08:56:36.259Z,8.93
2019-03-08T08:59:44.591Z,10.15
2019-03-08T09:02:32.103Z,11.00
2019-03-08T09:05:19.629Z,11.43
2019-03-08T09:08:07.139Z,12.63
2019-03-08T09:13:49.332Z,12.76
2019-03-08T09:22:10.561Z,11.93
2019-03-08T09:24:58.081Z,10.70
2019-03-08T09:27:45.599Z,9.77
2019-03-08T09:30:53.912Z,9.19
2019-03-08T09:33:41.423Z,8.76
2019-03-08T09:36:28.950Z,8.34
2019-03-08T09:39:35.733Z,8.22
2019-03-08T09:45:31.313Z,8.51
2019-03-08T09:56:22.216Z,8.86
2019-03-08T09:59:09.732Z,8.67
2019-03-08T10:01:57.253Z,8.43
2019-03-08T10:07:53.270Z,6.89
2019-03-08T10:21:02.136Z,6.40
2019-03-08T10:23:49.647Z,7.08
2019-03-08T10:26:37.168Z,8.12
2019-03-08T10:34:48.957Z,10.00
2019-03-08T10:37:55.736Z,10.02
2019-03-08T10:40:43.269Z,10.37
2019-03-08T10:43:30.773Z,10.22
2019-03-08T10:46:18.290Z,10.07
2019-03-08T10:52:17.706Z,10.22
2019-03-08T10:55:03.419Z,10.17
2019-03-08T11:06:20.670Z,10.22
2019-03-08T11:11:57.264Z,10.22
2019-03-08T11:14:44.774Z,9.79
2019-03-08T11:20:07.566Z,9.62
2019-03-08T11:22:55.088Z,9.59
2019-03-08T11:25:42.600Z,9.63
2019-03-08T11:28:30.135Z,9.85
2019-03-08T11:31:17.646Z,10.07
2019-03-08T11:36:44.094Z,10.45
2019-03-08T11:45:15.656Z,10.23
2019-03-08T11:48:03.177Z,10.31
2019-03-08T11:51:10.027Z,10.10
2019-03-08T11:53:57.550Z,10.09
2019-03-08T11:56:45.059Z,10.16
2019-03-08T11:59:32.581Z,10.36
2019-03-08T12:02:39.637Z,10.04
2019-03-08T12:05:49.847Z,10.25
2019-03-08T12:11:32.683Z,9.96
2019-03-08T12:14:20.207Z,9.68
2019-03-08T12:17:07.721Z,9.61
2019-03-08T12:22:50.193Z,9.39
2019-03-08T12:25:37.698Z,9.56
2019-03-08T12:28:25.224Z,9.79
2019-03-08T12:31:12.770Z,10.09
2019-03-08T12:34:00.298Z,10.26
2019-03-08T12:36:47.813Z,10.80
2019-03-08T12:39:35.358Z,10.92
2019-03-08T12:45:31.218Z,10.18
2019-03-08T12:48:23.828Z,10.05
2019-03-08T12:51:27.230Z,10.00
2019-03-08T12:54:14.751Z,9.82
2019-03-08T12:57:02.282Z,9.58
2019-03-08T13:00:09.062Z,9.68
2019-03-08T13:02:56.582Z,9.65
2019-03-08T13:05:44.090Z,9.65
2019-03-08T13:08:31.784Z,9.76
2019-03-08T13:11:19.428Z,9.49
2019-03-08T13:14:07.086Z,9.33
2019-03-08T13:16:35.517Z,9.48
2019-03-08T13:19:03.923Z,9.78
2019-03-08T13:21:32.321Z,9.69
2019-03-08T13:24:19.839Z,9.85
2019-03-08T13:26:48.243Z,10.04
2019-03-08T13:29:16.651Z,10.29
2019-03-08T13:39:41.329Z,10.96
2019-03-08T13:42:28.841Z,11.28
2019-03-08T13:44:57.257Z,11.34
2019-03-08T13:50:53.012Z,11.69
2019-03-08T13:53:21.408Z,11.45
2019-03-08T13:56:09.065Z,11.23
2019-03-08T14:01:24.922Z,11.20
2019-03-08T14:03:53.334Z,11.02
2019-03-08T14:06:40.977Z,10.95
2019-03-08T14:12:04.503Z,10.75
2019-03-08T14:14:33.033Z,10.46
2019-03-08T14:17:01.524Z,10.30
2019-03-08T14:19:30.474Z,10.32
2019-03-08T14:21:58.958Z,10.42
2019-03-08T14:24:27.547Z,10.54
2019-03-08T14:27:15.306Z,10.72
2019-03-08T14:30:23.812Z,10.51
2019-03-08T14:32:52.373Z,10.25
2019-03-08T14:37:57.151Z,9.97
2019-03-08T14:40:46.310Z,10.14
2019-03-08T14:43:53.897Z,10.06
2019-03-08T14:49:02.200Z,10.25
2019-03-08T14:51:30.932Z,9.93
2019-03-08T14:54:18.601Z,9.84
2019-03-08T14:59:42.188Z,9.73
2019-03-08T15:02:13.595Z,9.52
2019-03-08T15:07:28.257Z,9.44
2019-03-08T15:09:56.671Z,9.66
2019-03-08T15:12:48.884Z,9.85
2019-03-08T15:15:57.969Z,9.62
2019-03-08T15:18:25.911Z,9.42
2019-03-08T15:20:58.282Z,9.42
2019-03-08T15:23:25.040Z,9.74
2019-03-08T15:26:12.787Z,9.58
2019-03-08T15:29:00.448Z,9.48
2019-03-08T15:31:28.836Z,9.56
2019-03-08T15:33:57.233Z,9.44
2019-03-08T15:36:27.364Z,9.43
2019-03-08T15:38:58.862Z,9.37
2019-03-08T15:41:45.148Z,9.31
2019-03-08T15:44:13.543Z,9.18
2019-03-08T15:49:16.260Z,9.42
2019-03-08T15:52:04.660Z,9.53
2019-03-08T15:54:34.046Z,9.48
2019-03-08T15:57:21.740Z,9.43
2019-03-08T15:59:50.141Z,9.41
2019-03-08T16:02:37.671Z,9.28
2019-03-08T16:05:45.987Z,9.56
2019-03-08T16:08:16.103Z,9.73
2019-03-08T16:11:03.760Z,9.47
2019-03-08T16:13:32.156Z,9.53
2019-03-08T16:16:19.812Z,9.45
2019-03-08T16:19:07.322Z,9.31
2019-03-08T16:21:35.727Z,9.27
2019-03-08T16:24:05.857Z,9.25
2019-03-08T16:26:53.359Z,9.25
2019-03-08T16:29:40.735Z,9.32
2019-03-08T16:34:44.074Z,9.44
2019-03-08T16:37:31.356Z,9.46
2019-03-08T16:40:18.633Z,9.42
2019-03-08T16:43:07.659Z,9.65
2019-03-08T16:45:56.177Z,9.74
2019-03-08T16:54:17.243Z,9.77
2019-03-08T17:02:35.097Z,9.25
2019-03-08T17:08:30.716Z,8.96
2019-03-08T17:16:42.713Z,8.70
2019-03-08T17:19:51.028Z,8.74
2019-03-08T17:25:14.140Z,8.66
2019-03-08T17:28:01.665Z,8.61
2019-03-08T17:30:49.177Z,8.75
2019-03-08T17:33:36.705Z,8.65
2019-03-08T17:36:45.008Z,8.46
2019-03-08T17:39:32.526Z,8.30
2019-03-08T17:42:20.035Z,8.46
2019-03-08T17:45:26.817Z,8.31
2019-03-08T17:48:14.341Z,8.28
2019-03-08T17:53:50.945Z,8.18
2019-03-08T17:56:38.457Z,8.11
2019-03-08T17:59:26.157Z,7.98
2019-03-08T18:02:13.701Z,7.92
2019-03-08T18:05:01.225Z,7.92
2019-03-08T18:10:58.639Z,8.08
2019-03-08T18:19:00.081Z,7.70
2019-03-08T18:21:47.597Z,7.66
2019-03-08T18:24:35.121Z,7.59
2019-03-08T18:27:22.635Z,7.57
2019-03-08T18:30:10.159Z,7.73
2019-03-08T18:32:57.676Z,7.78
2019-03-08T18:35:45.378Z,7.80
2019-03-08T18:41:21.978Z,7.82
2019-03-08T18:44:09.502Z,7.83
2019-03-08T18:46:57.035Z,7.91
2019-03-08T18:49:44.559Z,7.81
2019-03-08T18:52:32.088Z,7.82
2019-03-08T18:55:19.611Z,7.94
2019-03-08T18:58:07.131Z,8.07
2019-03-08T19:01:13.996Z,8.07
2019-03-08T19:04:01.590Z,8.06
2019-03-08T19:07:08.363Z,8.00
2019-03-08T19:18:06.276Z,7.78
2019-03-08T19:20:53.844Z,7.65
2019-03-08T19:23:41.358Z,7.76
2019-03-08T19:26:28.875Z,7.66
2019-03-08T19:32:05.466Z,7.78
2019-03-08T19:35:12.297Z,7.75
2019-03-08T19:37:59.828Z,7.96
2019-03-08T19:40:47.354Z,7.96
2019-03-08T19:43:35.038Z,8.11
2019-03-08T19:46:41.893Z,8.03
2019-03-08T19:49:29.438Z,7.94
2019-03-08T19:52:16.961Z,7.97
2019-03-08T19:55:04.503Z,8.00
2019-03-08T20:01:00.332Z,7.91
2019-03-08T20:06:36.938Z,7.69
2019-03-08T20:09:45.253Z,7.61
2019-03-08T20:12:32.839Z,7.68
2019-03-08T20:15:20.462Z,7.49
2019-03-08T20:18:08.033Z,7.47
2019-03-08T20:23:50.484Z,7.54
2019-03-08T20:26:38.081Z,7.43
2019-03-08T20:29:25.593Z,7.31
2019-03-08T20:34:48.862Z,7.34
2019-03-08T20:37:36.385Z,7.37
2019-03-08T20:40:44.761Z,7.41
2019-03-08T20:46:09.254Z,7.38
2019-03-08T20:48:56.769Z,7.54
2019-03-08T20:52:05.083Z,7.35
2019-03-08T20:54:35.195Z,7.35
2019-03-08T20:57:22.833Z,7.52
2019-03-08T20:59:51.236Z,7.42
2019-03-08T21:02:19.639Z,7.42
2019-03-08T21:07:37.215Z,7.33
2019-03-08T21:10:24.952Z,7.35
2019-03-08T21:15:26.952Z,7.29
2019-03-08T21:18:14.604Z,7.38
2019-03-08T21:23:51.419Z,7.20
2019-03-08T21:26:19.819Z,7.45
2019-03-08T21:31:22.812Z,7.39
2019-03-08T21:34:10.339Z,7.55
2019-03-08T21:36:38.806Z,7.51
2019-03-08T21:39:47.121Z,7.57
2019-03-08T21:42:47.284Z,7.55
2019-03-08T21:45:55.828Z,7.33
2019-03-08T21:48:24.233Z,7.35
2019-03-08T21:51:32.536Z,7.52
2019-03-08T21:54:00.944Z,7.44
2019-03-08T21:56:29.350Z,7.31
2019-03-08T21:58:57.754Z,7.37
2019-03-08T22:01:26.154Z,7.29
2019-03-08T22:06:33.479Z,7.20
2019-03-08T22:12:16.289Z,7.30
2019-03-08T22:14:44.735Z,7.41
2019-03-08T22:20:00.586Z,7.25
2019-03-08T22:22:48.218Z,7.27
2019-03-08T22:25:16.616Z,7.22
2019-03-08T22:30:32.458Z,7.16
2019-03-08T22:33:00.901Z,7.27
2019-03-08T22:35:29.259Z,7.29
2019-03-08T22:37:57.663Z,7.36
2019-03-08T22:40:26.066Z,7.41
2019-03-08T22:42:54.467Z,7.41
2019-03-08T22:45:22.867Z,7.46
2019-03-08T22:47:51.266Z,7.32
2019-03-08T22:50:21.386Z,7.34
2019-03-08T22:52:49.782Z,7.34
2019-03-08T22:55:37.423Z,7.34
2019-03-08T22:58:05.820Z,7.41
2019-03-08T23:01:15.911Z,7.43
2019-03-08T23:03:44.318Z,7.43
2019-03-08T23:06:32.036Z,7.42
2019-03-08T23:09:19.549Z,7.46
2019-03-08T23:11:47.943Z,7.47
2019-03-08T23:14:35.483Z,7.57
2019-03-08T23:17:23.122Z,7.52
2019-03-08T23:19:53.247Z,7.60
2019-03-08T23:22:21.642Z,7.52
2019-03-08T23:24:50.036Z,7.29
2019-03-08T23:27:37.542Z,7.26
2019-03-08T23:30:45.862Z,7.31
2019-03-08T23:33:14.247Z,7.41
2019-03-08T23:36:03.626Z,7.41
2019-03-08T23:41:19.453Z,7.34
2019-03-08T23:44:06.969Z,7.42
2019-03-08T23:49:22.835Z,7.60
2019-03-08T23:51:51.266Z,7.29
2019-03-08T23:54:19.705Z,7.30
